createdAt,value
2023-02-19T00:01:27.824Z,97024.84
2023-02-19T00:03:57.139Z,96965.41
2023-02-19T00:06:25.817Z,97003.81
2023-02-19T00:08:52.848Z,97036.47
2023-02-19T00:11:22.172Z,96979.00
2023-02-19T00:13:51.213Z,97011.81
2023-02-19T00:16:24.882Z,97010.28
2023-02-19T00:18:52.414Z,97017.56
2023-02-19T00:21:19.098Z,97016.56
2023-02-19T00:24:12.723Z,97015.69
2023-02-19T00:26:41.064Z,97027.59
2023-02-19T00:29:10.252Z,97019.56
2023-02-19T00:31:36.993Z,97020.97
2023-02-19T00:34:06.412Z,97026.50
2023-02-19T00:36:36.421Z,97018.09
2023-02-19T00:39:03.866Z,97017.72
2023-02-19T00:41:30.683Z,96968.59
2023-02-19T00:43:58.525Z,97021.28
2023-02-19T00:46:31.193Z,97001.09
2023-02-19T00:48:58.271Z,97017.09
2023-02-19T00:51:28.247Z,97018.13
2023-02-19T00:53:55.087Z,96960.91
2023-02-19T00:56:21.895Z,96944.59
2023-02-19T00:58:48.940Z,97025.06
2023-02-19T01:01:16.523Z,97022.63
2023-02-19T01:03:43.484Z,96953.66
2023-02-19T01:06:11.365Z,97007.34
2023-02-19T01:08:38.345Z,96950.47
2023-02-19T01:11:06.198Z,97006.91
2023-02-19T01:13:33.821Z,96954.28
2023-02-19T01:16:10.968Z,96950.34
2023-02-19T01:18:37.586Z,96975.19
2023-02-19T01:21:09.267Z,96995.13
2023-02-19T01:23:36.528Z,97000.06
2023-02-19T01:26:08.848Z,96993.78
2023-02-19T01:28:35.792Z,96938.94
2023-02-19T01:31:04.425Z,96991.59
2023-02-19T01:33:31.901Z,96992.25
2023-02-19T01:35:58.671Z,97001.66
2023-02-19T01:38:25.321Z,96990.00
2023-02-19T01:41:03.555Z,96985.06
2023-02-19T01:43:33.572Z,96975.09
2023-02-19T01:46:00.503Z,96996.94
2023-02-19T01:48:29.672Z,96927.03
2023-02-19T01:51:02.857Z,96990.59
2023-02-19T01:53:33.779Z,96998.47
2023-02-19T01:56:01.397Z,96920.22
2023-02-19T01:58:31.851Z,96993.66
2023-02-19T02:01:00.798Z,96992.06
2023-02-19T02:03:27.948Z,96992.66
2023-02-19T02:06:09.768Z,96987.25
2023-02-19T02:08:55.383Z,96981.59
2023-02-19T02:11:22.088Z,96973.19
2023-02-19T02:13:49.848Z,96952.97
2023-02-19T02:16:22.886Z,96978.69
2023-02-19T02:19:17.117Z,96968.22
2023-02-19T02:21:49.495Z,96943.00
2023-02-19T02:25:10.073Z,96954.22
2023-02-19T02:28:10.540Z,96969.97
2023-02-19T02:30:45.400Z,96990.72
2023-02-19T02:33:27.046Z,96994.25
2023-02-19T02:36:08.730Z,97002.25
2023-02-19T02:38:39.464Z,96965.75
2023-02-19T02:41:06.700Z,96990.19
2023-02-19T02:43:33.665Z,97003.28
2023-02-19T02:46:00.348Z,96988.00
2023-02-19T02:48:45.155Z,97000.06
2023-02-19T02:51:38.870Z,96998.44
2023-02-19T02:54:29.850Z,97005.78
2023-02-19T02:56:57.096Z,96993.25
2023-02-19T02:59:27.869Z,96989.88
2023-02-19T03:02:15.235Z,97014.09
2023-02-19T03:05:11.593Z,97013.25
2023-02-19T03:07:46.792Z,97025.63
2023-02-19T03:10:25.371Z,97026.84
2023-02-19T03:13:13.428Z,96954.63
2023-02-19T03:16:03.803Z,97024.81
2023-02-19T03:18:52.242Z,97020.91
2023-02-19T03:21:21.325Z,97001.59
2023-02-19T03:24:07.311Z,96993.34
2023-02-19T03:26:34.651Z,96965.03
2023-02-19T03:29:21.783Z,96951.41
2023-02-19T03:31:52.344Z,96943.97
2023-02-19T03:34:31.800Z,96998.03
2023-02-19T03:37:25.295Z,97001.88
2023-02-19T03:39:53.977Z,97018.56
2023-02-19T03:42:40.256Z,97006.28
2023-02-19T03:45:36.295Z,97011.56
2023-02-19T03:48:21.485Z,96998.44
2023-02-19T03:50:55.212Z,97023.06
2023-02-19T03:53:45.355Z,96854.84
2023-02-19T03:56:20.214Z,97005.41
2023-02-19T03:59:00.566Z,97005.13
2023-02-19T04:01:49.204Z,97004.41
2023-02-19T04:04:26.349Z,96927.41
2023-02-19T04:06:56.209Z,96922.97
2023-02-19T04:09:27.538Z,97009.59
2023-02-19T04:11:55.244Z,97008.91
2023-02-19T04:14:35.171Z,97019.22
2023-02-19T04:17:05.428Z,97021.72
2023-02-19T04:19:37.697Z,96973.69
2023-02-19T04:22:06.251Z,96984.34
2023-02-19T04:24:48.932Z,97015.34
2023-02-19T04:27:15.656Z,96963.38
2023-02-19T04:29:42.752Z,97042.69
2023-02-19T04:32:11.774Z,97010.91
2023-02-19T04:34:38.592Z,97014.59
2023-02-19T04:37:06.028Z,97036.59
2023-02-19T04:39:32.706Z,97046.28
2023-02-19T04:41:59.297Z,97054.94
2023-02-19T04:44:25.925Z,97040.91
2023-02-19T04:46:52.527Z,97005.31
2023-02-19T04:49:19.192Z,97033.38
2023-02-19T04:51:45.772Z,97049.03
2023-02-19T04:54:12.424Z,97044.97
2023-02-19T04:56:39.993Z,97057.44
2023-02-19T04:59:06.943Z,97051.94
2023-02-19T05:01:33.574Z,97050.22
2023-02-19T05:04:00.151Z,97010.91
2023-02-19T05:06:27.496Z,96980.00
2023-02-19T05:08:54.060Z,97028.97
2023-02-19T05:11:20.688Z,97052.09
2023-02-19T05:13:47.309Z,97036.69
2023-02-19T05:16:16.320Z,97017.81
2023-02-19T05:18:45.625Z,97048.41
2023-02-19T05:21:12.847Z,97050.94
2023-02-19T05:23:40.216Z,97061.88
2023-02-19T05:26:20.580Z,97007.84
2023-02-19T05:28:50.436Z,96974.94
2023-02-19T05:31:17.788Z,96994.81
2023-02-19T05:33:48.257Z,96922.69
2023-02-19T05:36:14.889Z,97056.84
2023-02-19T05:38:41.892Z,97062.53
2023-02-19T05:41:18.470Z,97046.00
2023-02-19T05:43:47.011Z,97062.91
2023-02-19T05:46:16.105Z,97007.16
2023-02-19T05:48:42.862Z,97070.72
2023-02-19T05:51:12.420Z,97075.19
2023-02-19T05:53:39.704Z,97055.22
2023-02-19T05:56:24.226Z,97090.09
2023-02-19T05:58:51.066Z,97079.09
2023-02-19T06:01:19.343Z,97098.28
2023-02-19T06:03:45.968Z,97099.91
2023-02-19T06:06:17.900Z,97095.22
2023-02-19T06:08:44.731Z,97094.97
2023-02-19T06:11:11.915Z,97122.38
2023-02-19T06:13:38.656Z,97071.81
2023-02-19T06:16:06.979Z,97042.13
2023-02-19T06:18:34.192Z,97137.50
2023-02-19T06:21:09.524Z,97119.44
2023-02-19T06:23:36.826Z,97118.25
2023-02-19T06:26:19.440Z,97011.56
2023-02-19T06:28:47.533Z,97105.56
2023-02-19T06:31:14.648Z,97110.56
2023-02-19T06:33:42.053Z,97118.53
2023-02-19T06:36:12.756Z,97110.81
2023-02-19T06:38:39.713Z,97115.63
2023-02-19T06:41:07.323Z,97122.47
2023-02-19T06:43:34.980Z,97132.94
2023-02-19T06:46:06.471Z,97111.00
2023-02-19T06:48:33.731Z,97123.56
2023-02-19T06:51:00.474Z,97111.28
2023-02-19T06:53:27.662Z,97109.59
2023-02-19T06:56:05.490Z,97096.38
2023-02-19T06:58:32.641Z,97106.72
2023-02-19T07:00:59.824Z,97052.03
2023-02-19T07:03:26.599Z,97045.06
2023-02-19T07:05:53.851Z,97103.56
2023-02-19T07:08:20.816Z,97109.25
2023-02-19T07:10:56.481Z,97102.84
2023-02-19T07:13:24.803Z,97098.91
2023-02-19T07:15:52.346Z,97022.38
2023-02-19T07:18:19.139Z,97094.91
2023-02-19T07:20:45.739Z,97098.91
2023-02-19T07:23:12.298Z,97083.34
2023-02-19T07:25:39.331Z,97086.91
2023-02-19T07:28:06.585Z,97078.94
2023-02-19T07:30:33.307Z,97015.56
2023-02-19T07:32:59.991Z,97077.31
2023-02-19T07:35:26.566Z,97100.84
2023-02-19T07:37:53.484Z,97028.75
2023-02-19T07:40:20.107Z,97093.66
2023-02-19T07:42:46.708Z,97089.22
2023-02-19T07:45:27.605Z,97097.13
2023-02-19T07:47:54.228Z,97087.09
2023-02-19T07:50:20.844Z,97096.25
2023-02-19T07:52:47.452Z,97096.19
2023-02-19T07:55:15.236Z,97088.22
2023-02-19T07:57:41.856Z,97083.38
2023-02-19T08:00:08.914Z,97089.75
2023-02-19T08:02:53.845Z,97052.31
2023-02-19T08:05:20.432Z,97095.28
2023-02-19T08:07:47.048Z,97049.09
2023-02-19T08:10:32.305Z,97102.41
2023-02-19T08:13:19.352Z,97086.28
2023-02-19T08:16:18.298Z,97021.47
2023-02-19T08:18:47.722Z,97085.50
2023-02-19T08:21:14.863Z,97077.50
2023-02-19T08:23:41.589Z,97047.28
2023-02-19T08:26:09.870Z,97063.28
2023-02-19T08:28:36.620Z,97069.47
2023-02-19T08:31:06.187Z,97086.22
2023-02-19T08:33:32.918Z,97003.78
2023-02-19T08:36:04.853Z,97072.56
2023-02-19T08:38:37.341Z,97081.19
2023-02-19T08:41:09.204Z,97085.00
2023-02-19T08:43:36.585Z,97041.22
2023-02-19T08:46:03.751Z,97069.03
2023-02-19T08:48:30.434Z,97080.34
2023-02-19T08:50:58.703Z,97103.00
2023-02-19T08:53:25.805Z,97096.28
2023-02-19T08:55:53.285Z,97089.44
2023-02-19T08:58:19.980Z,97031.91
2023-02-19T09:00:46.591Z,97093.81
2023-02-19T09:03:13.392Z,97080.34
2023-02-19T09:05:40.890Z,97066.63
2023-02-19T09:08:07.566Z,97006.81
2023-02-19T09:10:34.205Z,97004.28
2023-02-19T09:13:02.534Z,96996.16
2023-02-19T09:15:29.791Z,97070.75
2023-02-19T09:17:56.489Z,97077.94
2023-02-19T09:20:23.324Z,97029.00
2023-02-19T09:22:50.014Z,96998.22
2023-02-19T09:25:16.629Z,97077.19
2023-02-19T09:27:43.482Z,97069.28
2023-02-19T09:30:10.552Z,97074.19
2023-02-19T09:32:37.205Z,97077.28
2023-02-19T09:35:03.949Z,97066.06
2023-02-19T09:37:31.566Z,97074.63
2023-02-19T09:39:59.681Z,97077.69
2023-02-19T09:42:29.931Z,97082.06
2023-02-19T09:44:58.899Z,97078.78
2023-02-19T09:47:28.617Z,97078.25
2023-02-19T09:50:10.486Z,97076.56
2023-02-19T09:52:51.224Z,97078.63
2023-02-19T09:55:29.622Z,97070.94
2023-02-19T09:57:58.208Z,97059.94
2023-02-19T10:00:26.829Z,97066.31
2023-02-19T10:03:05.681Z,97048.25
2023-02-19T10:05:34.160Z,97077.88
2023-02-19T10:08:04.683Z,97036.09
2023-02-19T10:10:34.383Z,97056.91
2023-02-19T10:13:21.627Z,97047.13
2023-02-19T10:15:51.480Z,97052.38
2023-02-19T10:18:24.330Z,97027.81
2023-02-19T10:20:52.967Z,97040.50
2023-02-19T10:23:20.077Z,97045.59
2023-02-19T10:25:59.171Z,97027.97
2023-02-19T10:28:34.229Z,97029.03
2023-02-19T10:31:04.897Z,97029.47
2023-02-19T10:33:32.059Z,97010.56
2023-02-19T10:36:00.299Z,97015.94
2023-02-19T10:38:33.217Z,97017.09
2023-02-19T10:41:08.537Z,97014.28
2023-02-19T10:43:40.028Z,97011.25
2023-02-19T10:46:17.451Z,96997.47
2023-02-19T10:48:53.239Z,96983.69
2023-02-19T10:51:26.503Z,97001.91
2023-02-19T10:54:15.606Z,96974.16
2023-02-19T10:56:42.450Z,96996.50
2023-02-19T10:59:28.201Z,96982.63
2023-02-19T11:02:00.607Z,96986.88
2023-02-19T11:04:33.899Z,96971.19
2023-02-19T11:07:18.188Z,96982.44
2023-02-19T11:09:47.182Z,96928.97
2023-02-19T11:12:23.418Z,96939.06
2023-02-19T11:14:50.036Z,96988.34
2023-02-19T11:17:30.596Z,96931.88
2023-02-19T11:20:00.863Z,96976.53
2023-02-19T11:22:46.823Z,96963.41
2023-02-19T11:25:13.314Z,96974.50
2023-02-19T11:28:26.480Z,96963.97
2023-02-19T11:30:53.115Z,96950.69
2023-02-19T11:33:26.773Z,96962.91
2023-02-19T11:36:16.904Z,96711.41
2023-02-19T11:38:43.991Z,96935.19
2023-02-19T11:41:20.354Z,96964.88
2023-02-19T11:44:34.128Z,96957.06
2023-02-19T11:47:03.479Z,96960.03
2023-02-19T11:49:48.263Z,96950.00
2023-02-19T11:52:36.368Z,96961.16
2023-02-19T11:55:15.116Z,96953.00
2023-02-19T11:57:45.787Z,96943.53
2023-02-19T12:00:24.210Z,96953.41
2023-02-19T12:03:27.797Z,96943.22
2023-02-19T12:06:17.663Z,96937.91
2023-02-19T12:09:02.646Z,96950.56
2023-02-19T12:11:43.144Z,96928.75
2023-02-19T12:14:31.223Z,96936.81
2023-02-19T12:17:01.959Z,96933.88
2023-02-19T12:20:10.608Z,96947.38
2023-02-19T12:22:46.890Z,96936.81
2023-02-19T12:25:19.482Z,96926.47
2023-02-19T12:28:25.430Z,96922.09
2023-02-19T12:31:28.268Z,96921.00
2023-02-19T12:34:02.848Z,96849.06
2023-02-19T12:37:00.720Z,96910.66
2023-02-19T12:39:30.218Z,96921.75
2023-02-19T12:42:26.268Z,96905.66
2023-02-19T12:45:01.001Z,96838.38
2023-02-19T12:47:39.300Z,96769.53
2023-02-19T12:50:18.042Z,96895.06
2023-02-19T12:52:50.475Z,96877.56
2023-02-19T12:55:25.588Z,96882.75
2023-02-19T12:57:54.782Z,96887.50
2023-02-19T13:00:30.635Z,96884.97
2023-02-19T13:03:20.907Z,96880.75
2023-02-19T13:05:52.893Z,96874.03
2023-02-19T13:09:05.296Z,96877.13
2023-02-19T13:11:36.797Z,96877.06
2023-02-19T13:14:14.409Z,96875.91
2023-02-19T13:16:44.443Z,96876.69
2023-02-19T13:19:15.098Z,96866.94
2023-02-19T13:22:03.152Z,96867.38
2023-02-19T13:24:36.962Z,96876.94
2023-02-19T13:27:36.600Z,96860.41
2023-02-19T13:30:41.118Z,96854.34
2023-02-19T13:33:30.651Z,96854.09
2023-02-19T13:36:06.183Z,96846.78
2023-02-19T13:38:41.399Z,96842.03
2023-02-19T13:41:18.965Z,96826.72
2023-02-19T13:43:47.075Z,96834.78
2023-02-19T13:46:17.131Z,96782.03
2023-02-19T13:48:44.558Z,96799.44
2023-02-19T13:51:17.356Z,96826.97
2023-02-19T13:53:43.878Z,96814.00
2023-02-19T13:56:35.346Z,96818.94
2023-02-19T13:59:11.031Z,96822.97
2023-02-19T14:01:50.199Z,96820.81
2023-02-19T14:04:47.568Z,96793.66
2023-02-19T14:07:14.123Z,96808.63
2023-02-19T14:09:40.634Z,96803.41
2023-02-19T14:12:10.408Z,96800.34
2023-02-19T14:14:40.238Z,96790.13
2023-02-19T14:17:09.861Z,96789.44
2023-02-19T14:19:42.584Z,96785.03
2023-02-19T14:22:48.703Z,96787.25
2023-02-19T14:25:29.551Z,96779.00
2023-02-19T14:28:17.237Z,96776.09
2023-02-19T14:30:54.151Z,96775.09
2023-02-19T14:33:26.523Z,96774.66
2023-02-19T14:35:58.328Z,96777.34
2023-02-19T14:38:33.916Z,96778.41
2023-02-19T14:41:00.976Z,96739.16
2023-02-19T14:43:28.734Z,96775.31
2023-02-19T14:46:00.559Z,96755.72
2023-02-19T14:48:35.491Z,96772.00
2023-02-19T14:51:13.086Z,96731.78
2023-02-19T14:53:44.275Z,96764.09
2023-02-19T14:56:31.226Z,96793.13
2023-02-19T14:59:28.932Z,96761.63
2023-02-19T15:01:56.308Z,96761.88
2023-02-19T15:04:37.053Z,96754.41
2023-02-19T15:07:08.539Z,96753.91
2023-02-19T15:09:43.740Z,96688.53
2023-02-19T15:12:25.218Z,96751.03
2023-02-19T15:14:57.090Z,96749.38
2023-02-19T15:17:32.677Z,96668.97
2023-02-19T15:20:05.303Z,96746.34
2023-02-19T15:22:32.995Z,96689.16
2023-02-19T15:25:03.711Z,96740.84
2023-02-19T15:27:30.749Z,96712.13
2023-02-19T15:29:57.354Z,96655.94
2023-02-19T15:32:26.685Z,96708.91
2023-02-19T15:35:01.608Z,96740.13
2023-02-19T15:37:31.809Z,96717.50
2023-02-19T15:40:00.686Z,96736.44
2023-02-19T15:42:31.194Z,96735.34
2023-02-19T15:44:57.788Z,96725.72
2023-02-19T15:47:39.601Z,96727.66
2023-02-19T15:50:14.888Z,96736.81
2023-02-19T15:52:44.162Z,96728.91
2023-02-19T15:55:25.911Z,96725.56
2023-02-19T15:58:17.569Z,96719.34
2023-02-19T16:00:50.007Z,96722.81
2023-02-19T16:03:26.133Z,96731.59
2023-02-19T16:06:14.930Z,96725.97
2023-02-19T16:08:46.851Z,96701.84
2023-02-19T16:11:22.502Z,96740.00
2023-02-19T16:13:50.488Z,96744.13
2023-02-19T16:16:30.809Z,96747.50
2023-02-19T16:18:57.922Z,96721.16
2023-02-19T16:21:27.067Z,96758.69
2023-02-19T16:24:03.631Z,96758.78
2023-02-19T16:26:38.950Z,96758.13
2023-02-19T16:29:20.770Z,96740.16
2023-02-19T16:31:53.486Z,96742.19
2023-02-19T16:34:50.442Z,96755.03
2023-02-19T16:37:35.064Z,96748.78
2023-02-19T16:40:07.779Z,96753.78
2023-02-19T16:42:36.077Z,96755.94
2023-02-19T16:45:02.643Z,96762.78
2023-02-19T16:47:34.691Z,96761.63
2023-02-19T16:50:04.149Z,96710.84
2023-02-19T16:52:30.873Z,96766.63
2023-02-19T16:54:57.598Z,96765.47
2023-02-19T16:57:24.289Z,96761.91
2023-02-19T16:59:51.045Z,96756.78
2023-02-19T17:02:21.502Z,96722.97
2023-02-19T17:04:49.622Z,96771.88
2023-02-19T17:07:19.378Z,96776.72
2023-02-19T17:09:46.056Z,96745.03
2023-02-19T17:12:14.454Z,96780.84
2023-02-19T17:14:41.074Z,96786.16
2023-02-19T17:17:07.821Z,96726.13
2023-02-19T17:19:34.545Z,96780.56
2023-02-19T17:22:01.239Z,96787.75
2023-02-19T17:24:27.908Z,96801.69
2023-02-19T17:26:54.525Z,96795.72
2023-02-19T17:29:21.352Z,96800.50
2023-02-19T17:31:48.060Z,96827.25
2023-02-19T17:34:14.685Z,96807.72
2023-02-19T17:36:43.209Z,96804.94
2023-02-19T17:39:15.182Z,96808.94
2023-02-19T17:41:42.258Z,96768.75
2023-02-19T17:44:09.047Z,96788.25
2023-02-19T17:46:35.866Z,96804.97
2023-02-19T17:49:02.586Z,96808.19
2023-02-19T17:51:29.265Z,96812.97
2023-02-19T17:53:55.902Z,96807.38
2023-02-19T17:56:25.663Z,96811.75
2023-02-19T17:58:52.679Z,96776.72
2023-02-19T18:01:19.483Z,96824.88
2023-02-19T18:03:46.313Z,96775.53
2023-02-19T18:06:13.777Z,96752.47
2023-02-19T18:08:46.997Z,96820.09
2023-02-19T18:11:13.959Z,96788.28
2023-02-19T18:13:40.703Z,96828.84
2023-02-19T18:16:07.482Z,96723.81
2023-02-19T18:18:34.517Z,96815.28
2023-02-19T18:21:01.145Z,96803.38
2023-02-19T18:23:27.752Z,96761.19
2023-02-19T18:25:54.516Z,96830.41
2023-02-19T18:28:21.294Z,96746.84
2023-02-19T18:30:48.140Z,96839.13
2023-02-19T18:33:14.853Z,96820.72
2023-02-19T18:35:41.614Z,96847.81
2023-02-19T18:38:08.311Z,96750.63
2023-02-19T18:40:35.093Z,96834.94
2023-02-19T18:43:01.839Z,96821.84
2023-02-19T18:45:30.671Z,96727.47
2023-02-19T18:47:57.524Z,96846.06
2023-02-19T18:50:24.174Z,96785.53
2023-02-19T18:52:51.619Z,96817.31
2023-02-19T18:55:18.532Z,96853.97
2023-02-19T18:57:46.219Z,96856.34
2023-02-19T19:00:18.252Z,96861.91
2023-02-19T19:02:49.755Z,96796.84
2023-02-19T19:05:22.763Z,96875.38
2023-02-19T19:07:59.262Z,96872.22
2023-02-19T19:10:28.205Z,96864.63
2023-02-19T19:12:55.129Z,96878.47
2023-02-19T19:15:25.216Z,96878.38
2023-02-19T19:17:52.407Z,96809.72
2023-02-19T19:20:20.792Z,96849.53
2023-02-19T19:22:54.005Z,96896.56
2023-02-19T19:25:22.844Z,96900.47
2023-02-19T19:27:50.803Z,96902.75
2023-02-19T19:30:20.034Z,96850.13
2023-02-19T19:32:51.827Z,96890.88
2023-02-19T19:35:19.591Z,96905.59
2023-02-19T19:37:46.465Z,96899.53
2023-02-19T19:40:13.824Z,96811.16
2023-02-19T19:42:40.694Z,96882.91
2023-02-19T19:45:08.486Z,96841.47
2023-02-19T19:47:35.165Z,96870.16
2023-02-19T19:50:01.980Z,96891.34
2023-02-19T19:52:29.843Z,96892.47
2023-02-19T19:54:56.523Z,96882.91
2023-02-19T19:57:23.105Z,96829.78
2023-02-19T19:59:51.253Z,96882.03
2023-02-19T20:02:19.082Z,96887.63
2023-02-19T20:04:45.874Z,96885.19
2023-02-19T20:07:12.516Z,96894.00
2023-02-19T20:09:39.213Z,96768.66
2023-02-19T20:12:06.670Z,96901.09
2023-02-19T20:14:33.813Z,96901.63
2023-02-19T20:17:00.440Z,96907.66
2023-02-19T20:19:27.044Z,96884.94
2023-02-19T20:21:54.017Z,96903.69
2023-02-19T20:24:28.664Z,96904.16
2023-02-19T20:27:00.600Z,96911.00
2023-02-19T20:29:29.408Z,96905.41
2023-02-19T20:31:59.790Z,96921.78
2023-02-19T20:34:27.096Z,96918.34
2023-02-19T20:36:54.103Z,96919.38
2023-02-19T20:39:22.003Z,96912.91
2023-02-19T20:41:51.070Z,96907.38
2023-02-19T20:44:18.981Z,96866.78
2023-02-19T20:46:47.918Z,96805.28
2023-02-19T20:49:16.703Z,96890.59
2023-02-19T20:51:50.151Z,96843.66
2023-02-19T20:54:17.653Z,96906.88
2023-02-19T20:56:48.831Z,96905.81
2023-02-19T20:59:16.830Z,96907.56
2023-02-19T21:01:44.289Z,96907.44
2023-02-19T21:04:11.417Z,96832.50
2023-02-19T21:06:38.527Z,96903.69
2023-02-19T21:09:06.036Z,96898.69
2023-02-19T21:11:33.197Z,96891.72
2023-02-19T21:14:00.145Z,96891.72
2023-02-19T21:16:28.571Z,96898.22
2023-02-19T21:18:55.408Z,96896.72
2023-02-19T21:21:25.333Z,96895.81
2023-02-19T21:23:56.354Z,96895.91
2023-02-19T21:26:23.982Z,96894.16
2023-02-19T21:28:51.799Z,96899.63
2023-02-19T21:31:19.581Z,96894.66
2023-02-19T21:33:46.776Z,96901.63
2023-02-19T21:36:13.543Z,96903.22
2023-02-19T21:38:40.225Z,96911.63
2023-02-19T21:41:06.846Z,96915.22
2023-02-19T21:43:33.422Z,96881.88
2023-02-19T21:46:00.143Z,96907.00
2023-02-19T21:48:26.748Z,96914.63
2023-02-19T21:50:53.332Z,96937.16
2023-02-19T21:53:19.939Z,96848.91
2023-02-19T21:55:57.756Z,96916.28
2023-02-19T21:58:25.626Z,96910.81
2023-02-19T22:00:53.962Z,96902.81
2023-02-19T22:03:20.732Z,96901.47
2023-02-19T22:05:47.337Z,96897.69
2023-02-19T22:08:15.553Z,96922.75
2023-02-19T22:10:42.630Z,96802.72
2023-02-19T22:13:10.159Z,96897.44
2023-02-19T22:15:37.234Z,96881.06
2023-02-19T22:18:05.698Z,96873.50
2023-02-19T22:20:32.293Z,96900.94
2023-02-19T22:22:58.849Z,96927.03
2023-02-19T22:25:25.429Z,96849.44
2023-02-19T22:27:52.002Z,96892.81
2023-02-19T22:30:18.701Z,96897.25
2023-02-19T22:32:45.359Z,96910.97
2023-02-19T22:35:12.982Z,96904.81
2023-02-19T22:37:40.864Z,96917.94
2023-02-19T22:40:07.914Z,96901.47
2023-02-19T22:42:35.982Z,96900.69
2023-02-19T22:45:02.789Z,96940.72
2023-02-19T22:47:29.461Z,96896.22
2023-02-19T22:49:56.044Z,96957.63
2023-02-19T22:52:23.997Z,96949.78
2023-02-19T22:54:52.542Z,96941.81
2023-02-19T22:57:19.135Z,96854.22
2023-02-19T22:59:45.761Z,96910.00
2023-02-19T23:02:12.344Z,96910.03
2023-02-19T23:04:38.959Z,96911.59
2023-02-19T23:07:07.506Z,96839.94
2023-02-19T23:09:34.255Z,96913.97
2023-02-19T23:12:11.629Z,96912.78
2023-02-19T23:14:38.280Z,96882.94
2023-02-19T23:17:05.142Z,96896.41
2023-02-19T23:19:32.147Z,96956.19
2023-02-19T23:21:59.360Z,96960.50
2023-02-19T23:24:25.973Z,96966.47
2023-02-19T23:26:53.164Z,96974.00
2023-02-19T23:29:26.271Z,96962.53
2023-02-19T23:31:54.218Z,96952.06
2023-02-19T23:34:21.805Z,96932.97
2023-02-19T23:36:50.154Z,96957.69
2023-02-19T23:39:19.500Z,96995.09
2023-02-19T23:41:51.320Z,96923.06
2023-02-19T23:44:18.239Z,96879.22
2023-02-19T23:46:44.922Z,96926.56
2023-02-19T23:49:12.016Z,96939.28
2023-02-19T23:51:38.774Z,96887.94
2023-02-19T23:54:05.530Z,96934.97
2023-02-19T23:56:33.037Z,96947.25
2023-02-19T23:58:59.740Z,96939.75
